CheckWX is a tool to help pilots better visualize weather data.  It is not intended as a substitute for an official pre-flight weather briefing.

13:56:56 UTC

KCKM METAR
Fletcher Field Airport
Clarksdale, Mississippi, USA
Current

22 mins ago

KCKM 261335Z AUTO 33008KT 10SM CLR 17/11 A3007 RMK A01
Observed
Apr-26 @ 13:35 UTC
Wind
  • 330° at 8 KTS
Visibility
10 SM
Flight Rules
VFR
Cloud Levels
  • Clear skies
Temperature
17°C / 63°F
Dewpoint
11°C / 52°F
Humidity
68%
Altimeter
30.07" Hg
Pressure
1018.32 hPa
Previous

42 mins ago

KCKM 261315Z AUTO 33008G14KT 10SM CLR 17/12 A3006 RMK A01
Observed
Apr-26 @ 13:15 UTC
Wind
  • 330° at 8 KTS
  • Gusting to 14 KTS
Visibility
10 SM
Flight Rules
VFR
Cloud Levels
  • Clear skies
Temperature
17°C / 63°F
Dewpoint
12°C / 54°F
Humidity
73%
Altimeter
30.06" Hg
Pressure
1017.92 hPa
Previous

1 hour ago

KCKM 261255Z AUTO 32008KT 10SM CLR 17/12 A3006 RMK A01
Observed
Apr-26 @ 12:55 UTC
Wind
  • 320° at 8 KTS
Visibility
10 SM
Flight Rules
VFR
Cloud Levels
  • Clear skies
Temperature
17°C / 63°F
Dewpoint
12°C / 54°F
Humidity
73%
Altimeter
30.06" Hg
Pressure
1017.92 hPa